createdAt,value
2022-09-06T00:01:17.031Z,99558.28
2022-09-06T00:03:45.879Z,99563.69
2022-09-06T00:06:17.380Z,99536.72
2022-09-06T00:08:46.967Z,99545.47
2022-09-06T00:11:16.740Z,99540.91
2022-09-06T00:13:45.833Z,99552.72
2022-09-06T00:16:28.428Z,99549.94
2022-09-06T00:18:59.981Z,99548.31
2022-09-06T00:21:46.266Z,99556.19
2022-09-06T00:24:17.874Z,99569.47
2022-09-06T00:26:45.870Z,99567.66
2022-09-06T00:29:13.920Z,99567.00
2022-09-06T00:31:42.098Z,99605.22
2022-09-06T00:34:10.053Z,99608.69
2022-09-06T00:36:38.089Z,99614.09
2022-09-06T00:39:07.187Z,99616.72
2022-09-06T00:41:35.324Z,99634.94
2022-09-06T00:44:03.507Z,99676.25
2022-09-06T00:46:34.063Z,99681.22
2022-09-06T00:49:28.566Z,99667.09
2022-09-06T00:52:08.132Z,99648.72
2022-09-06T00:54:37.032Z,99625.94
2022-09-06T00:57:05.463Z,99620.38
2022-09-06T00:59:40.065Z,99629.75
2022-09-06T01:02:10.354Z,99610.25
2022-09-06T01:04:41.189Z,99608.31
2022-09-06T01:07:23.831Z,99617.69
2022-09-06T01:10:29.476Z,99620.00
2022-09-06T01:13:18.812Z,99607.53
2022-09-06T01:16:18.861Z,99598.69
2022-09-06T01:18:59.418Z,99600.69
2022-09-06T01:21:41.059Z,99604.00
2022-09-06T01:24:20.581Z,99612.56
2022-09-06T01:27:16.401Z,99626.38
2022-09-06T01:33:20.708Z,99613.63
2022-09-06T01:36:01.827Z,99657.50
2022-09-06T01:38:32.358Z,99654.72
2022-09-06T01:41:00.370Z,99652.09
2022-09-06T01:43:38.785Z,99654.28
2022-09-06T01:46:27.177Z,99635.75
2022-09-06T01:49:25.546Z,99633.78
2022-09-06T01:52:11.295Z,99638.06
2022-09-06T01:54:51.215Z,99632.00
2022-09-06T01:57:39.102Z,99640.69
2022-09-06T02:00:10.710Z,99631.69
2022-09-06T02:02:54.619Z,99626.72
2022-09-06T02:05:33.326Z,99628.84
2022-09-06T02:08:08.147Z,99627.41
2022-09-06T02:10:51.741Z,99614.44
2022-09-06T02:13:26.359Z,99614.28
2022-09-06T02:16:05.019Z,99628.59
2022-09-06T02:18:47.607Z,99645.84
2022-09-06T02:21:19.146Z,99625.75
2022-09-06T02:23:48.430Z,99630.75
2022-09-06T02:26:28.525Z,99640.31
2022-09-06T02:28:57.506Z,99642.63
2022-09-06T02:31:39.491Z,99620.56
2022-09-06T02:34:08.381Z,99648.06
2022-09-06T02:36:38.039Z,99648.09
2022-09-06T02:39:08.068Z,99639.53
2022-09-06T02:41:35.880Z,99653.03
2022-09-06T02:44:04.049Z,99654.84
2022-09-06T02:46:32.377Z,99662.56
2022-09-06T02:49:00.521Z,99645.97
2022-09-06T02:51:28.566Z,99650.91
2022-09-06T02:53:58.967Z,99636.66
2022-09-06T02:56:26.907Z,99624.13
2022-09-06T02:58:54.937Z,99630.09
2022-09-06T03:01:23.966Z,99619.56
2022-09-06T03:03:52.118Z,99617.09
2022-09-06T03:06:20.364Z,99626.34
2022-09-06T03:08:48.618Z,99623.41
2022-09-06T03:11:16.739Z,99628.81
2022-09-06T03:13:44.971Z,99657.47
2022-09-06T03:16:15.110Z,99658.13
2022-09-06T03:18:43.220Z,99660.59
2022-09-06T03:21:11.765Z,99653.69
2022-09-06T03:23:40.325Z,99664.06
2022-09-06T03:26:09.037Z,99657.78
2022-09-06T03:28:37.038Z,99652.56
2022-09-06T03:31:06.333Z,99642.72
2022-09-06T03:33:34.386Z,99658.16
2022-09-06T03:36:03.923Z,99654.03
2022-09-06T03:38:33.028Z,99671.00
2022-09-06T03:41:01.194Z,99663.75
2022-09-06T03:43:29.396Z,99653.41
2022-09-06T03:45:59.967Z,99659.34
2022-09-06T03:48:30.558Z,99647.84
2022-09-06T03:50:59.768Z,99626.63
2022-09-06T03:53:31.202Z,99628.44
2022-09-06T03:55:59.700Z,99669.84
2022-09-06T03:58:32.359Z,99690.22
2022-09-06T04:01:09.079Z,99717.81
2022-09-06T04:03:38.272Z,99699.06
2022-09-06T04:06:07.746Z,99687.41
2022-09-06T04:08:38.279Z,99689.56
2022-09-06T04:11:07.468Z,99700.75
2022-09-06T04:13:36.547Z,99705.03
2022-09-06T04:16:07.157Z,99692.69
2022-09-06T04:18:35.274Z,99696.16
2022-09-06T04:21:03.608Z,99681.84
2022-09-06T04:23:33.510Z,99693.53
2022-09-06T04:26:05.172Z,99688.94
2022-09-06T04:28:33.207Z,99691.41
2022-09-06T04:31:05.645Z,99676.94
2022-09-06T04:33:35.444Z,99677.78
2022-09-06T04:36:12.097Z,99650.63
2022-09-06T04:38:42.915Z,99667.75
2022-09-06T04:41:13.366Z,99670.41
2022-09-06T04:43:43.795Z,99668.75
2022-09-06T04:46:30.465Z,99648.88
2022-09-06T04:49:00.082Z,99645.09
2022-09-06T04:51:28.739Z,99618.63
2022-09-06T04:53:56.814Z,99602.03
2022-09-06T04:56:28.264Z,99601.72
2022-09-06T04:58:56.715Z,99612.03
2022-09-06T05:01:26.867Z,99608.81
2022-09-06T05:03:57.305Z,99608.81
2022-09-06T05:06:26.636Z,99592.03
2022-09-06T05:08:54.909Z,99585.13
2022-09-06T05:11:24.209Z,99564.91
2022-09-06T05:13:52.274Z,99584.31
2022-09-06T05:16:21.290Z,99594.13
2022-09-06T05:18:49.474Z,99621.09
2022-09-06T05:21:17.584Z,99651.66
2022-09-06T05:23:45.858Z,99652.66
2022-09-06T05:26:14.008Z,99661.69
2022-09-06T05:28:41.994Z,99635.34
2022-09-06T05:31:12.828Z,99629.28
2022-09-06T05:33:41.240Z,99606.44
2022-09-06T05:36:09.744Z,99606.44
2022-09-06T05:38:37.828Z,99615.97
2022-09-06T05:41:07.885Z,99620.56
2022-09-06T05:43:35.909Z,99624.19
2022-09-06T05:46:04.663Z,99624.69
2022-09-06T05:48:36.777Z,99599.50
2022-09-06T05:51:08.961Z,99601.81
2022-09-06T05:53:44.029Z,99597.56
2022-09-06T05:56:14.478Z,99608.75
2022-09-06T05:58:42.563Z,99610.25
2022-09-06T06:01:29.323Z,99602.34
2022-09-06T06:04:03.322Z,99596.91
2022-09-06T06:06:34.824Z,99598.28
2022-09-06T06:09:03.067Z,99607.00
2022-09-06T06:11:32.368Z,99609.16
2022-09-06T06:14:00.900Z,99615.56
2022-09-06T06:16:29.957Z,99612.13
2022-09-06T06:18:58.315Z,99615.91
2022-09-06T06:21:33.527Z,99584.47
2022-09-06T06:24:04.578Z,99609.66
2022-09-06T06:26:35.248Z,99595.50
2022-09-06T06:29:03.820Z,99584.81
2022-09-06T06:31:33.413Z,99586.63
2022-09-06T06:34:04.342Z,99578.41
2022-09-06T06:36:37.449Z,99580.88
2022-09-06T06:39:09.159Z,99580.38
2022-09-06T06:41:38.640Z,99560.81
2022-09-06T06:44:25.835Z,99571.66
2022-09-06T06:46:53.826Z,99556.19
2022-09-06T06:49:22.008Z,99570.19
2022-09-06T06:51:51.185Z,99573.47
2022-09-06T06:54:19.253Z,99581.03
2022-09-06T06:56:47.789Z,99593.91
2022-09-06T06:59:16.773Z,99577.59
2022-09-06T07:01:45.525Z,99582.88
2022-09-06T07:04:15.117Z,99595.88
2022-09-06T07:12:31.927Z,99593.75
2022-09-06T07:14:59.992Z,99580.75
2022-09-06T07:17:29.031Z,99569.56
2022-09-06T07:20:14.872Z,99572.19
2022-09-06T07:22:43.871Z,99581.25
2022-09-06T07:25:19.049Z,99596.03
2022-09-06T07:27:50.118Z,99591.44
2022-09-06T07:30:20.790Z,99595.88
2022-09-06T07:32:49.420Z,99590.44
2022-09-06T07:35:17.972Z,99586.84
2022-09-06T07:37:54.897Z,99585.84
2022-09-06T07:40:23.850Z,99579.59
2022-09-06T07:42:52.010Z,99552.78
2022-09-06T07:45:20.761Z,99553.09
2022-09-06T07:48:01.496Z,99551.28
2022-09-06T07:50:49.091Z,99550.31
2022-09-06T07:53:26.247Z,99569.38
2022-09-06T07:56:01.277Z,99578.13
2022-09-06T07:58:31.528Z,99571.19
2022-09-06T08:01:31.561Z,99570.22
2022-09-06T08:04:02.690Z,99550.97
2022-09-06T08:09:22.999Z,99573.50
2022-09-06T08:11:51.748Z,99563.31
2022-09-06T08:14:20.536Z,99554.25
2022-09-06T08:16:49.689Z,99569.91
2022-09-06T08:19:21.063Z,99566.47
2022-09-06T08:21:49.160Z,99574.69
2022-09-06T08:24:18.350Z,99558.56
2022-09-06T08:26:46.475Z,99555.91
2022-09-06T08:29:15.093Z,99560.03
2022-09-06T08:31:45.302Z,99565.63
2022-09-06T08:34:14.806Z,99562.81
2022-09-06T08:36:43.291Z,99559.88
2022-09-06T08:39:14.929Z,99566.09
2022-09-06T08:41:49.096Z,99572.84
2022-09-06T08:47:14.726Z,99587.34
2022-09-06T08:49:53.587Z,99592.09
2022-09-06T08:52:54.381Z,99597.69
2022-09-06T08:55:46.026Z,99597.53
2022-09-06T08:58:52.146Z,99590.28
2022-09-06T09:01:26.374Z,99582.06
2022-09-06T09:03:58.778Z,99563.44
2022-09-06T09:06:29.153Z,99558.00
2022-09-06T09:09:15.559Z,99565.56
2022-09-06T09:11:51.078Z,99563.75
2022-09-06T09:14:33.033Z,99557.34
2022-09-06T09:17:07.318Z,99571.84
2022-09-06T09:19:38.551Z,99566.72
2022-09-06T09:22:07.527Z,99573.81
2022-09-06T09:24:37.906Z,99572.00
2022-09-06T09:27:12.748Z,99562.44
2022-09-06T09:32:47.787Z,99565.75
2022-09-06T09:35:34.842Z,99570.84
2022-09-06T09:38:26.955Z,99575.97
2022-09-06T09:40:56.789Z,99585.69
2022-09-06T09:43:39.581Z,99595.88
2022-09-06T09:46:17.099Z,99581.41
2022-09-06T09:49:03.915Z,99592.44
2022-09-06T09:51:35.185Z,99588.81
2022-09-06T09:54:06.517Z,99592.28
2022-09-06T09:56:37.039Z,99581.41
2022-09-06T09:59:18.827Z,99571.50
2022-09-06T10:01:48.247Z,99586.66
2022-09-06T10:07:24.208Z,99573.47
2022-09-06T10:10:05.573Z,99575.78
2022-09-06T10:12:40.708Z,99576.94
2022-09-06T10:15:13.976Z,99575.44
2022-09-06T10:17:56.279Z,99576.44
2022-09-06T10:20:49.092Z,99574.28
2022-09-06T10:26:17.562Z,99593.38
2022-09-06T10:28:47.695Z,99585.63
2022-09-06T10:31:30.294Z,99583.16
2022-09-06T10:34:14.957Z,99584.66
2022-09-06T10:37:21.620Z,99581.19
2022-09-06T10:40:15.238Z,99567.38
2022-09-06T10:42:51.027Z,99571.00
2022-09-06T10:45:47.196Z,99582.34
2022-09-06T10:48:41.312Z,99575.13
2022-09-06T10:51:22.773Z,99571.81
2022-09-06T10:53:56.681Z,99575.44
2022-09-06T10:56:38.810Z,99572.81
2022-09-06T10:59:39.289Z,99572.00
2022-09-06T11:02:39.148Z,99573.00
2022-09-06T11:05:38.995Z,99569.38
2022-09-06T11:08:46.719Z,99558.66
2022-09-06T11:11:25.206Z,99566.56
2022-09-06T11:13:53.346Z,99548.28
2022-09-06T11:16:32.061Z,99537.25
2022-09-06T11:19:32.214Z,99544.84
2022-09-06T11:22:13.598Z,99545.66
2022-09-06T11:25:29.365Z,99535.78
2022-09-06T11:28:00.112Z,99532.81
2022-09-06T11:30:30.650Z,99545.16
2022-09-06T11:33:40.535Z,99554.56
2022-09-06T11:36:41.713Z,99543.88
2022-09-06T11:39:11.014Z,99532.69
2022-09-06T11:41:41.996Z,99535.00
2022-09-06T11:44:15.890Z,99539.59
2022-09-06T11:46:59.505Z,99537.31
2022-09-06T11:49:38.983Z,99522.66
2022-09-06T11:52:43.909Z,99513.44
2022-09-06T11:55:16.104Z,99481.69
2022-09-06T11:57:48.151Z,99515.25
2022-09-06T12:00:20.109Z,99523.97
2022-09-06T12:02:48.405Z,99521.19
2022-09-06T12:05:24.043Z,99531.06
2022-09-06T12:08:21.366Z,99532.72
2022-09-06T12:10:58.307Z,99532.06
2022-09-06T12:13:47.834Z,99523.97
2022-09-06T12:16:18.209Z,99531.22
2022-09-06T12:18:49.328Z,99536.16
2022-09-06T12:21:53.346Z,99545.06
2022-09-06T12:24:39.400Z,99540.59
2022-09-06T12:27:23.452Z,99540.59
2022-09-06T12:29:52.717Z,99526.78
2022-09-06T12:32:27.122Z,99500.13
2022-09-06T12:38:00.430Z,99490.91
2022-09-06T12:40:32.799Z,99481.38
2022-09-06T12:43:03.423Z,99481.69
2022-09-06T12:45:32.250Z,99489.75
2022-09-06T12:48:25.874Z,99496.31
2022-09-06T12:51:17.203Z,99498.13
2022-09-06T12:53:53.307Z,99497.47
2022-09-06T12:56:24.522Z,99495.19
2022-09-06T12:58:52.682Z,99484.34
2022-09-06T13:01:35.531Z,99483.69
2022-09-06T13:04:17.058Z,99492.22
2022-09-06T13:06:48.361Z,99494.84
2022-09-06T13:09:21.383Z,99491.56
2022-09-06T13:11:53.026Z,99493.38
2022-09-06T13:14:31.462Z,99500.47
2022-09-06T13:17:00.552Z,99498.47
2022-09-06T13:19:36.407Z,99508.19
2022-09-06T13:22:08.318Z,99514.59
2022-09-06T13:24:36.265Z,99513.63
2022-09-06T13:27:27.044Z,99513.13
2022-09-06T13:29:57.645Z,99521.84
2022-09-06T13:32:29.479Z,99521.03
2022-09-06T13:35:00.780Z,99507.69
2022-09-06T13:37:32.246Z,99518.41
2022-09-06T13:40:00.674Z,99521.69
2022-09-06T13:42:40.508Z,99516.25
2022-09-06T13:45:30.451Z,99500.28
2022-09-06T13:48:13.155Z,99509.84
2022-09-06T13:50:46.717Z,99518.56
2022-09-06T13:53:21.539Z,99499.63
2022-09-06T13:55:49.592Z,99509.00
2022-09-06T13:58:17.610Z,99476.94
2022-09-06T14:00:47.851Z,99519.88
2022-09-06T14:03:26.148Z,99526.44
2022-09-06T14:05:58.317Z,99526.44
2022-09-06T14:08:34.581Z,99529.22
2022-09-06T14:11:14.956Z,99513.09
2022-09-06T14:13:43.123Z,99521.50
2022-09-06T14:16:11.600Z,99533.00
2022-09-06T14:18:40.983Z,99548.13
2022-09-06T14:21:09.075Z,99565.25
2022-09-06T14:23:58.833Z,99556.03
2022-09-06T14:26:29.686Z,99542.06
2022-09-06T14:28:57.892Z,99536.78
2022-09-06T14:31:29.254Z,99538.44
2022-09-06T14:33:59.088Z,99545.50
2022-09-06T14:36:32.998Z,99550.44
2022-09-06T14:39:02.461Z,99541.56
2022-09-06T14:41:30.943Z,99557.19
2022-09-06T14:44:01.062Z,99554.22
2022-09-06T14:46:30.497Z,99580.88
2022-09-06T14:49:11.720Z,99571.50
2022-09-06T14:51:40.541Z,99567.72
2022-09-06T14:54:11.351Z,99568.03
2022-09-06T14:56:42.356Z,99576.25
2022-09-06T14:59:11.694Z,99561.78
2022-09-06T15:01:41.415Z,99562.63
2022-09-06T15:04:13.465Z,99559.66
2022-09-06T15:06:45.503Z,99561.97
2022-09-06T15:09:15.633Z,99555.53
2022-09-06T15:11:47.098Z,99544.03
2022-09-06T15:14:17.932Z,99552.09
2022-09-06T15:16:49.856Z,99557.03
2022-09-06T15:19:22.096Z,99564.91
2022-09-06T15:21:50.148Z,99565.41
2022-09-06T15:24:18.444Z,99556.38
2022-09-06T15:26:49.049Z,99550.13
2022-09-06T15:29:17.421Z,99549.13
2022-09-06T15:31:51.665Z,99553.72
2022-09-06T15:34:21.691Z,99558.00
2022-09-06T15:36:51.268Z,99547.81
2022-09-06T15:39:19.824Z,99561.47
2022-09-06T15:41:47.932Z,99566.06
2022-09-06T15:44:18.594Z,99555.72
2022-09-06T15:46:56.022Z,99546.34
2022-09-06T15:49:28.513Z,99534.97
2022-09-06T15:51:58.772Z,99523.63
2022-09-06T15:54:45.679Z,99519.69
2022-09-06T15:57:16.796Z,99505.03
2022-09-06T15:59:45.169Z,99487.63
2022-09-06T16:02:14.555Z,99509.50
2022-09-06T16:04:42.729Z,99509.50
2022-09-06T16:07:10.738Z,99520.50
2022-09-06T16:09:40.466Z,99519.84
2022-09-06T16:12:09.862Z,99522.66
2022-09-06T16:14:38.788Z,99509.00
2022-09-06T16:17:08.974Z,99510.97
2022-09-06T16:19:37.183Z,99505.72
2022-09-06T16:22:05.402Z,99497.00
2022-09-06T16:24:33.646Z,99494.34
2022-09-06T16:27:01.711Z,99487.28
2022-09-06T16:29:29.757Z,99490.25
2022-09-06T16:32:00.526Z,99493.38
2022-09-06T16:34:28.585Z,99482.34
2022-09-06T16:36:57.574Z,99476.44
2022-09-06T16:39:40.697Z,99482.03
2022-09-06T16:42:08.875Z,99483.00
2022-09-06T16:44:37.489Z,99481.38
2022-09-06T16:47:06.781Z,99472.31
2022-09-06T16:49:34.852Z,99472.31
2022-09-06T16:52:03.100Z,99471.50
2022-09-06T16:54:33.176Z,99463.13
2022-09-06T16:57:02.900Z,99467.22
2022-09-06T16:59:30.976Z,99459.34
2022-09-06T17:02:00.327Z,99450.94
2022-09-06T17:04:28.642Z,99442.22
2022-09-06T17:06:56.605Z,99445.53
2022-09-06T17:09:25.677Z,99441.25
2022-09-06T17:11:53.811Z,99436.97
2022-09-06T17:14:22.979Z,99428.25
2022-09-06T17:17:06.388Z,99423.13
2022-09-06T17:19:40.192Z,99421.19
2022-09-06T17:22:12.111Z,99426.47
2022-09-06T17:24:53.176Z,99433.03
2022-09-06T17:27:22.354Z,99425.13
2022-09-06T17:29:50.406Z,99405.88
2022-09-06T17:32:18.489Z,99421.69
2022-09-06T17:34:47.491Z,99412.44
2022-09-06T17:37:16.189Z,99421.84
2022-09-06T17:39:44.256Z,99417.56
2022-09-06T17:42:12.505Z,99417.56
2022-09-06T17:44:40.543Z,99409.34
2022-09-06T17:47:12.921Z,99401.09
2022-09-06T17:49:44.049Z,99399.28
2022-09-06T17:52:11.982Z,99395.84
2022-09-06T17:54:40.062Z,99374.31
2022-09-06T17:57:09.826Z,99383.19
2022-09-06T17:59:39.255Z,99389.44
2022-09-06T18:02:08.992Z,99390.44
2022-09-06T18:04:37.412Z,99384.19
2022-09-06T18:07:05.513Z,99390.75
2022-09-06T18:09:33.614Z,99390.94
2022-09-06T18:12:03.569Z,99377.94
2022-09-06T18:14:31.552Z,99375.31
2022-09-06T18:17:02.149Z,99370.22
2022-09-06T18:19:30.387Z,99370.56
2022-09-06T18:21:58.486Z,99355.28
2022-09-06T18:24:26.692Z,99368.59
2022-09-06T18:26:56.089Z,99367.75
2022-09-06T18:29:24.165Z,99364.47
2022-09-06T18:31:54.684Z,99374.00
2022-09-06T18:34:23.019Z,99371.38
2022-09-06T18:36:51.214Z,99366.13
2022-09-06T18:39:20.899Z,99374.81
2022-09-06T18:42:03.138Z,99373.03
2022-09-06T18:44:33.407Z,99379.75
2022-09-06T18:47:07.619Z,99386.00
2022-09-06T18:49:43.749Z,99399.31
2022-09-06T18:52:12.332Z,99406.22
2022-09-06T18:54:40.503Z,99382.22
2022-09-06T18:57:10.293Z,99393.91
2022-09-06T19:00:27.424Z,99374.50
2022-09-06T19:02:57.169Z,99378.78
2022-09-06T19:05:25.324Z,99375.97
2022-09-06T19:07:53.415Z,99354.28
2022-09-06T19:10:21.577Z,99375.31
2022-09-06T19:12:53.125Z,99367.59
2022-09-06T19:15:21.525Z,99354.44
2022-09-06T19:17:51.618Z,99341.31
2022-09-06T19:20:20.169Z,99347.38
2022-09-06T19:22:51.681Z,99346.72
2022-09-06T19:25:21.059Z,99341.47
2022-09-06T19:27:49.182Z,99330.94
2022-09-06T19:30:18.325Z,99323.06
2022-09-06T19:32:48.692Z,99329.97
2022-09-06T19:35:16.764Z,99331.78
2022-09-06T19:37:44.838Z,99333.75
2022-09-06T19:40:13.098Z,99333.09
2022-09-06T19:42:41.213Z,99317.16
2022-09-06T19:45:10.533Z,99351.66
2022-09-06T19:47:40.210Z,99345.91
2022-09-06T19:50:09.709Z,99336.06
2022-09-06T19:52:37.676Z,99327.03
2022-09-06T19:55:06.216Z,99315.34
2022-09-06T19:57:34.277Z,99336.56
2022-09-06T20:00:02.289Z,99333.75
2022-09-06T20:02:31.669Z,99324.06
2022-09-06T20:04:59.912Z,99331.13
2022-09-06T20:07:29.003Z,99312.56
2022-09-06T20:09:58.131Z,99309.78
2022-09-06T20:12:26.210Z,99314.53
2022-09-06T20:14:54.293Z,99309.44
2022-09-06T20:17:40.050Z,99311.25
2022-09-06T20:20:09.303Z,99305.50
2022-09-06T20:22:37.595Z,99298.13
2022-09-06T20:25:06.054Z,99300.25
2022-09-06T20:27:34.020Z,99298.59
2022-09-06T20:30:05.365Z,99294.97
2022-09-06T20:32:34.632Z,99284.97
2022-09-06T20:35:02.637Z,99294.97
2022-09-06T20:37:31.909Z,99286.94
2022-09-06T20:39:59.933Z,99294.16
2022-09-06T20:42:28.126Z,99290.53
2022-09-06T20:44:57.284Z,99281.19
2022-09-06T20:47:25.332Z,99278.38
2022-09-06T20:49:53.347Z,99275.94
2022-09-06T20:52:24.629Z,99274.28
2022-09-06T20:54:52.647Z,99281.19
2022-09-06T20:57:20.839Z,99280.19
2022-09-06T20:59:50.449Z,99279.22
2022-09-06T21:02:18.656Z,99274.78
2022-09-06T21:04:46.702Z,99278.06
2022-09-06T21:07:15.223Z,99279.88
2022-09-06T21:09:43.301Z,99274.78
2022-09-06T21:12:11.464Z,99271.50
2022-09-06T21:14:40.208Z,99267.88
2022-09-06T21:17:08.239Z,99267.72
2022-09-06T21:19:36.932Z,99256.53
2022-09-06T21:22:05.613Z,99261.63
2022-09-06T21:24:34.953Z,99254.06
2022-09-06T21:27:02.936Z,99252.59
2022-09-06T21:29:31.196Z,99246.03
2022-09-06T21:31:59.421Z,99260.81
2022-09-06T21:34:27.434Z,99230.25
2022-09-06T21:36:55.575Z,99258.00
2022-09-06T21:39:23.581Z,99265.06
2022-09-06T21:41:52.375Z,99263.09
2022-09-06T21:44:21.527Z,99271.97
2022-09-06T21:46:49.693Z,99276.41
2022-09-06T21:49:17.784Z,99265.91
2022-09-06T21:51:47.565Z,99271.81
2022-09-06T21:54:15.525Z,99267.38
2022-09-06T21:56:43.668Z,99267.22
2022-09-06T21:59:13.563Z,99257.19
2022-09-06T22:01:43.178Z,99267.84
2022-09-06T22:04:14.423Z,99271.47
2022-09-06T22:06:42.646Z,99268.19
2022-09-06T22:09:13.478Z,99255.38
2022-09-06T22:11:45.042Z,99254.88
2022-09-06T22:14:15.321Z,99251.25
2022-09-06T22:16:43.433Z,99254.53
2022-09-06T22:19:12.309Z,99251.09
2022-09-06T22:21:41.169Z,99231.06
2022-09-06T22:24:11.702Z,99237.44
2022-09-06T22:26:47.127Z,99230.72
2022-09-06T22:29:16.208Z,99227.44
2022-09-06T22:31:44.857Z,99253.88
2022-09-06T22:34:13.033Z,99231.88
2022-09-06T22:36:41.190Z,99215.59
2022-09-06T22:39:10.127Z,99235.13
2022-09-06T22:41:39.557Z,99215.25
2022-09-06T22:44:07.889Z,99220.16
2022-09-06T22:46:37.796Z,99213.91
2022-09-06T22:49:07.948Z,99208.50
2022-09-06T22:51:36.044Z,99211.13
2022-09-06T22:54:05.148Z,99207.53
2022-09-06T22:56:33.413Z,99215.09
2022-09-06T22:59:01.457Z,99220.34
2022-09-06T23:01:29.863Z,99222.16
2022-09-06T23:03:58.767Z,99207.88
2022-09-06T23:06:45.326Z,99191.75
2022-09-06T23:09:13.641Z,99189.78
2022-09-06T23:11:41.734Z,99176.97
2022-09-06T23:14:09.790Z,99172.69
2022-09-06T23:16:41.883Z,99167.59
2022-09-06T23:19:10.943Z,99139.53
2022-09-06T23:21:39.069Z,99151.34
2022-09-06T23:24:07.224Z,99161.06
2022-09-06T23:26:36.010Z,99132.19
2022-09-06T23:29:04.253Z,99146.09
2022-09-06T23:31:35.241Z,99138.22
2022-09-06T23:34:04.032Z,99139.03
2022-09-06T23:36:33.061Z,99139.03
2022-09-06T23:39:03.217Z,99137.41
2022-09-06T23:41:31.611Z,99151.34
2022-09-06T23:43:59.684Z,99158.72
2022-09-06T23:46:28.920Z,99162.19
2022-09-06T23:48:57.064Z,99163.00
2022-09-06T23:54:12.344Z,99177.78
2022-09-06T23:56:40.386Z,99185.69
2022-09-06T23:59:08.468Z,99174.34
